Time;durP1;ratioP1;P1;durP2;ratioP2;P2;SDS_P1;SDS_P2;PMS_P1;PMS_P2;Temp;Humidity;BMP_temperature;BMP_pressure;BME280_temperature;BME280_humidity;BME280_pressure;Samples;Min_cycle;Max_cycle;Signal;HPM_P1;HPM_P2
2021/06/11 10:04:45;;;;;;;3.60;2.58;;;;;;;29.61;33.57;97204.45;1856491;75;25747;-83
2021/06/11 10:07:13;;;;;;;8.83;2.85;;;;;;;29.42;34.96;97204.13;1839281;77;25642;-84
2021/06/11 10:09:41;;;;;;;4.17;2.08;;;;;;;29.41;35.02;97199.72;1855502;75;27353;-83
2021/06/11 10:12:09;;;;;;;4.00;1.80;;;;;;;29.43;34.57;97193.81;1865860;76;25648;-84
2021/06/11 10:14:36;;;;;;;2.15;1.87;;;;;;;29.16;35.03;97190.94;1861199;76;25646;-83
2021/06/11 10:17:06;;;;;;;3.20;2.02;;;;;;;29.14;34.69;97180.73;1855639;77;25718;-87
2021/06/11 10:19:34;;;;;;;4.58;2.70;;;;;;;29.14;34.26;97173.21;1855705;77;26070;-84
2021/06/11 10:22:01;;;;;;;3.95;2.60;;;;;;;29.07;34.54;97176.30;1855514;75;27369;-84
2021/06/11 10:24:28;;;;;;;6.00;2.30;;;;;;;29.04;34.19;97170.83;1855342;77;25950;-82
2021/06/11 10:26:55;;;;;;;6.58;2.00;;;;;;;29.14;34.03;97173.78;1855292;75;25722;-85
2021/06/11 10:29:23;;;;;;;2.45;1.90;;;;;;;29.23;33.66;97171.18;1855417;76;25659;-84
2021/06/11 10:31:49;;;;;;;3.47;2.08;;;;;;;29.27;33.51;97165.77;1855444;77;25868;-84
2021/06/11 10:34:16;;;;;;;2.00;1.90;;;;;;;29.08;32.94;97158.48;1854905;77;27407;-84
2021/06/11 10:36:45;;;;;;;2.65;1.95;;;;;;;28.91;32.77;97157.42;1855407;75;25734;-83
2021/06/11 10:39:18;;;;;;;5.12;2.12;;;;;;;28.81;32.57;97150.87;1855555;77;25768;-84
2021/06/11 10:42:01;;;;;;;3.60;2.27;;;;;;;28.81;33.06;97152.26;1855720;76;25815;-84
2021/06/11 10:44:54;;;;;;;3.87;2.02;;;;;;;28.93;33.44;97136.25;1878945;76;25645;-82
2021/06/11 10:47:24;;;;;;;3.08;2.10;;;;;;;28.92;33.55;97134.63;1857525;75;27532;-91
2021/06/11 10:50:01;;;;;;;3.67;2.12;;;;;;;29.07;33.17;97124.89;1855343;77;25718;-85
2021/06/11 10:52:46;;;;;;;2.08;1.77;;;;;;;29.17;32.59;97125.88;1876605;76;25656;-84
2021/06/11 10:55:21;;;;;;;2.15;1.70;;;;;;;29.17;32.36;97125.30;1844398;76;25780;-85
2021/06/11 10:58:00;;;;;;;4.42;1.90;;;;;;;29.20;32.65;97124.62;1838532;76;25687;-85
2021/06/11 11:00:35;;;;;;;2.35;2.15;;;;;;;29.03;32.80;97115.83;1862530;75;28132;-84
2021/06/11 11:03:05;;;;;;;2.45;2.22;;;;;;;29.20;32.34;97116.29;1855586;76;25658;-83
2021/06/11 11:05:36;;;;;;;2.92;1.80;;;;;;;29.39;31.95;97115.83;1855547;77;25650;-85
2021/06/11 11:08:08;;;;;;;1.90;1.80;;;;;;;29.46;31.20;97104.98;1855697;75;25895;-86
2021/06/11 11:10:52;;;;;;;4.08;2.20;;;;;;;29.08;32.05;97100.12;1855669;77;25785;-85
2021/06/11 11:13:29;;;;;;;2.27;1.85;;;;;;;28.95;32.33;97097.27;1855722;75;27458;-84
2021/06/11 11:15:57;;;;;;;6.28;2.47;;;;;;;29.03;31.83;97096.95;1854771;75;25852;-83
2021/06/11 11:18:38;;;;;;;3.30;1.72;;;;;;;29.09;31.81;97100.36;1855141;77;25784;-84
2021/06/11 11:21:35;;;;;;;5.55;2.00;;;;;;;29.06;31.89;97092.12;1856059;76;25181;-85
2021/06/11 11:24:10;;;;;;;3.25;2.70;;;;;;;29.14;31.78;97087.63;1875609;76;25784;-82
2021/06/11 11:26:49;;;;;;;2.98;2.00;;;;;;;29.15;30.81;97091.47;1856713;76;27431;-84
2021/06/11 11:29:19;;;;;;;4.60;2.10;;;;;;;29.03;31.04;97082.48;1854701;77;25655;-84
2021/06/11 11:31:48;;;;;;;5.72;2.20;;;;;;;28.87;31.21;97083.41;1859828;76;25713;-84
2021/06/11 11:34:15;;;;;;;4.12;2.20;;;;;;;28.62;31.46;97081.83;1863848;76;26343;-85
2021/06/11 11:36:42;;;;;;;6.05;2.25;;;;;;;28.51;31.88;97079.77;1831363;77;25648;-83
2021/06/11 11:39:13;;;;;;;2.42;2.15;;;;;;;28.71;31.88;97076.23;1855167;77;28001;-82
2021/06/11 11:41:41;;;;;;;2.75;2.30;;;;;;;28.86;31.70;97078.44;1855066;75;25686;-85
2021/06/11 11:44:08;;;;;;;3.45;2.80;;;;;;;28.87;32.00;97076.47;1855117;77;25785;-85
2021/06/11 11:46:34;;;;;;;4.78;2.55;;;;;;;28.77;32.55;97077.66;1855150;75;25749;-84
2021/06/11 11:49:01;;;;;;;5.22;2.20;;;;;;;28.50;32.69;97074.79;1855271;77;25713;-83
2021/06/11 11:51:27;;;;;;;3.50;2.33;;;;;;;28.51;32.37;97078.38;1855057;77;27392;-85
2021/06/11 11:53:54;;;;;;;4.67;2.58;;;;;;;28.58;32.70;97075.91;1854836;77;25808;-84
2021/06/11 11:56:20;;;;;;;2.92;2.25;;;;;;;28.50;32.69;97072.62;1855078;77;25729;-84
2021/06/11 11:58:47;;;;;;;5.00;2.60;;;;;;;28.60;32.40;97068.06;1825903;77;26281;-83
2021/06/11 12:01:14;;;;;;;4.60;2.12;;;;;;;28.68;32.96;97068.00;1830764;77;25700;-85
2021/06/11 12:03:40;;;;;;;2.10;1.82;;;;;;;28.83;32.20;97069.41;1852134;77;27507;-84
2021/06/11 12:06:07;;;;;;;3.37;2.20;;;;;;;28.68;32.40;97064.41;1845850;77;25642;-85
2021/06/11 12:08:34;;;;;;;3.60;2.17;;;;;;;28.48;32.04;97063.80;1846317;77;25783;-85
2021/06/11 12:11:00;;;;;;;3.05;2.05;;;;;;;28.40;31.98;97064.07;1863679;76;25692;-85
2021/06/11 12:13:27;;;;;;;2.37;1.85;;;;;;;28.04;31.87;97058.17;1823630;77;25248;-84
2021/06/11 12:15:54;;;;;;;2.52;2.00;;;;;;;27.75;31.79;97063.09;1817961;77;27462;-86
2021/06/11 12:18:21;;;;;;;2.58;1.92;;;;;;;27.83;31.80;97055.32;1843317;76;25297;-84
2021/06/11 12:20:48;;;;;;;5.70;1.77;;;;;;;27.79;31.76;97059.31;1822851;77;25695;-84
2021/06/11 12:23:15;;;;;;;3.87;2.22;;;;;;;27.86;32.13;97056.05;1840077;77;26304;-81
2021/06/11 12:25:41;;;;;;;1.70;1.60;;;;;;;28.03;31.20;97052.37;1846223;76;25667;-84
2021/06/11 12:28:08;;;;;;;3.60;1.98;;;;;;;28.20;30.56;97062.88;1822509;76;28032;-82
2021/06/11 12:30:35;;;;;;;1.65;1.55;;;;;;;27.95;29.43;97043.77;1833670;76;26391;-83
2021/06/11 12:33:02;;;;;;;1.52;1.42;;;;;;;27.82;30.34;97048.14;1835806;76;25735;-86
2021/06/11 12:35:29;;;;;;;2.25;2.02;;;;;;;27.91;30.72;97052.50;1836609;76;25635;-86
2021/06/11 12:37:55;;;;;;;1.70;1.60;;;;;;;27.66;30.90;97049.23;1832876;76;25654;-85
2021/06/11 12:40:22;;;;;;;2.65;1.50;;;;;;;27.66;31.55;97048.42;1846026;77;27282;-85
2021/06/11 12:42:52;;;;;;;3.17;1.60;;;;;;;27.57;31.23;97047.06;1846032;77;25611;-86
2021/06/11 12:45:17;;;;;;;2.10;2.00;;;;;;;27.70;31.52;97053.56;1845718;76;25767;-86
2021/06/11 12:47:47;;;;;;;2.80;2.37;;;;;;;27.83;32.18;97048.38;1846234;76;25742;-84
2021/06/11 12:50:14;;;;;;;2.15;1.80;;;;;;;27.93;32.37;97043.86;1843600;77;25623;-87
2021/06/11 12:52:40;;;;;;;2.52;1.95;;;;;;;27.94;31.91;97049.08;1805515;76;27741;-82
2021/06/11 12:55:09;;;;;;;5.47;2.80;;;;;;;27.64;32.03;97052.13;1834985;77;25908;-87
2021/06/11 12:57:36;;;;;;;21.07;3.92;;;;;;;27.37;32.42;97052.70;1846137;77;25280;-86
2021/06/11 13:00:05;;;;;;;4.30;2.90;;;;;;;27.25;33.26;97051.17;1846023;77;25792;-86
2021/06/11 13:02:32;;;;;;;17.90;3.45;;;;;;;27.16;33.75;97058.69;1846142;77;26320;-87
2021/06/11 13:04:58;;;;;;;10.72;3.17;;;;;;;27.00;34.01;97058.92;1845763;76;28354;-85
2021/06/11 13:07:27;;;;;;;7.62;3.00;;;;;;;26.87;34.66;97057.91;1845914;76;25750;-86
2021/06/11 13:09:54;;;;;;;5.67;2.83;;;;;;;26.83;34.93;97053.58;1834850;77;25788;-85
2021/06/11 13:12:21;;;;;;;5.33;3.08;;;;;;;26.69;35.51;97053.47;1821478;76;25645;-86
2021/06/11 13:14:47;;;;;;;6.28;3.08;;;;;;;26.67;35.62;97052.44;1846277;77;26273;-86
2021/06/11 13:17:14;;;;;;;4.17;2.98;;;;;;;26.77;35.58;97047.97;1845870;76;28258;-85
2021/06/11 13:19:41;;;;;;;6.53;3.00;;;;;;;26.92;36.14;97045.86;1830148;77;25708;-85
2021/06/11 13:22:07;;;;;;;3.30;2.92;;;;;;;26.93;35.91;97053.06;1839068;76;25751;-84
2021/06/11 13:24:34;;;;;;;4.75;3.33;;;;;;;26.84;35.87;97053.83;1846142;76;25290;-86
2021/06/11 13:27:01;;;;;;;4.83;3.50;;;;;;;26.74;35.77;97066.60;1846174;76;25695;-87
2021/06/11 13:29:27;;;;;;;8.00;4.10;;;;;;;26.35;35.93;97053.66;1809376;77;27512;-84
2021/06/11 13:31:55;;;;;;;11.20;3.80;;;;;;;26.09;36.33;97068.75;1802736;77;25786;-84
2021/06/11 13:34:21;;;;;;;5.90;3.75;;;;;;;25.69;36.74;97067.11;1835690;76;25735;-87
2021/06/11 13:36:48;;;;;;;5.67;3.95;;;;;;;25.02;37.46;97078.13;1830510;76;25706;-87
2021/06/11 13:39:15;;;;;;;11.60;4.75;;;;;;;24.44;38.32;97073.89;1841861;76;25758;-87
2021/06/11 13:41:44;;;;;;;5.80;3.62;;;;;;;24.03;39.09;97085.16;1827546;76;28322;-87
2021/06/11 13:44:10;;;;;;;10.23;4.03;;;;;;;23.67;40.08;97085.56;1814139;76;26163;-88
2021/06/11 13:46:36;;;;;;;12.15;4.28;;;;;;;23.47;40.66;97093.61;1834032;76;26246;-84
2021/06/11 13:49:03;;;;;;;5.85;4.20;;;;;;;23.49;40.81;97098.82;1835257;77;25943;-84
2021/06/11 13:51:29;;;;;;;8.13;4.33;;;;;;;23.38;40.92;97094.60;1846059;76;25720;-84
2021/06/11 13:53:56;;;;;;;6.90;4.08;;;;;;;23.29;41.31;97095.30;1845881;77;27389;-83
2021/06/11 13:56:23;;;;;;;9.33;3.77;;;;;;;23.31;41.64;97100.48;1845573;76;25852;-84
2021/06/11 13:58:49;;;;;;;5.25;3.65;;;;;;;23.31;41.73;97099.10;1838029;76;25815;-85
2021/06/11 14:01:16;;;;;;;5.00;3.65;;;;;;;23.26;41.80;97100.02;1849513;76;26076;-84
2021/06/11 14:03:42;;;;;;;10.03;4.37;;;;;;;23.14;41.89;97102.42;1855311;76;25632;-85
2021/06/11 14:06:09;;;;;;;5.72;4.60;;;;;;;23.10;42.12;97104.13;1846207;77;27348;-85
2021/06/11 14:08:36;;;;;;;5.95;4.10;;;;;;;22.99;42.68;97112.28;1846091;77;25820;-84
2021/06/11 14:11:02;;;;;;;7.37;4.30;;;;;;;22.82;42.78;97112.00;1862311;76;25654;-83
2021/06/11 14:13:29;;;;;;;5.55;4.30;;;;;;;22.80;43.07;97125.23;1846027;77;26288;-83
2021/06/11 14:15:56;;;;;;;8.90;4.67;;;;;;;22.74;43.29;97115.36;1846017;77;25735;-85
2021/06/11 14:18:24;;;;;;;6.60;4.60;;;;;;;22.58;43.89;97123.81;1846087;77;27346;-85
2021/06/11 14:20:52;;;;;;;4.90;4.40;;;;;;;22.28;44.21;97111.83;1845957;77;25710;-89
2021/06/11 14:23:20;;;;;;;9.03;5.17;;;;;;;22.07;45.22;97115.38;1846171;77;25476;-84
2021/06/11 14:25:47;;;;;;;5.92;4.97;;;;;;;21.92;45.82;97114.95;1846140;77;26526;-85
2021/06/11 14:28:15;;;;;;;7.45;5.25;;;;;;;21.79;46.13;97100.52;1845988;77;26567;-85
2021/06/11 14:30:45;;;;;;;12.55;4.62;;;;;;;21.73;46.09;97089.34;1845996;77;28264;-82
2021/06/11 14:33:12;;;;;;;7.08;4.90;;;;;;;21.92;46.07;97115.51;1846056;76;25722;-84
2021/06/11 14:35:39;;;;;;;7.03;5.08;;;;;;;21.95;46.05;97125.92;1856258;76;25748;-85
2021/06/11 14:38:06;;;;;;;7.55;4.90;;;;;;;21.89;46.14;97127.07;1851754;76;26142;-86
2021/06/11 14:40:33;;;;;;;8.50;4.90;;;;;;;21.89;46.14;97127.07;1846178;77;25825;-83
2021/06/11 14:43:00;;;;;;;7.67;5.60;;;;;;;21.95;46.28;97131.98;1846152;77;27462;-84
2021/06/11 14:45:27;;;;;;;8.28;4.92;;;;;;;21.95;46.28;97131.98;1845927;77;25746;-84
2021/06/11 14:47:54;;;;;;;7.15;5.15;;;;;;;21.88;46.50;97128.18;1846165;77;25958;-83
2021/06/11 14:50:20;;;;;;;9.13;5.30;;;;;;;21.76;46.85;97139.56;1862453;76;25720;-87
2021/06/11 14:52:50;;;;;;;6.55;5.28;;;;;;;21.60;46.93;97129.84;1846268;77;25776;-85
2021/06/11 14:55:18;;;;;;;7.20;5.85;;;;;;;21.55;47.48;97132.63;1838338;76;27405;-85
2021/06/11 14:57:45;;;;;;;6.58;5.50;;;;;;;21.37;47.91;97130.59;1811784;77;25857;-85
2021/06/11 15:00:15;;;;;;;8.23;5.72;;;;;;;21.19;48.67;97128.80;1822707;77;25764;-86
2021/06/11 15:02:44;;;;;;;6.75;5.92;;;;;;;21.28;48.90;97126.80;1846252;76;25699;-85
2021/06/11 15:05:14;;;;;;;7.78;5.40;;;;;;;21.32;49.31;97121.84;1850552;77;25636;-83
2021/06/11 15:07:41;;;;;;;5.60;4.90;;;;;;;21.24;49.51;97130.70;1851115;77;27365;-85
2021/06/11 15:10:09;;;;;;;6.20;4.83;;;;;;;21.13;49.43;97125.77;1836293;77;25687;-86
2021/06/11 15:12:35;;;;;;;6.25;4.75;;;;;;;20.94;49.61;97130.31;1855072;75;25827;-84
2021/06/11 15:15:04;;;;;;;4.53;4.10;;;;;;;20.87;49.61;97135.30;1854913;77;25796;-85
2021/06/11 15:17:30;;;;;;;6.22;4.20;;;;;;;20.78;50.04;97134.23;1855347;75;25645;-82
2021/06/11 15:19:57;;;;;;;4.47;4.08;;;;;;;20.72;50.13;97132.09;1875134;76;27455;-88
2021/06/11 15:22:24;;;;;;;10.38;4.37;;;;;;;20.59;50.28;97134.08;1875365;76;26444;-85
2021/06/11 15:24:51;;;;;;;9.28;4.87;;;;;;;20.59;50.37;97133.25;1786943;78;26032;-85
2021/06/11 15:27:18;;;;;;;4.97;4.08;;;;;;;20.65;50.59;97123.92;1801348;78;25907;-86
2021/06/11 15:29:44;;;;;;;4.97;3.70;;;;;;;20.66;50.32;97124.16;1770415;79;25698;-85
2021/06/11 15:32:11;;;;;;;11.95;5.60;;;;;;;20.72;50.41;97125.78;1761595;80;28184;-88
2021/06/11 15:34:37;;;;;;;7.55;4.05;;;;;;;20.67;49.98;97123.06;1800590;78;25984;-86
2021/06/11 15:37:04;;;;;;;6.95;3.25;;;;;;;20.53;49.55;97129.70;1800636;79;25676;-84
2021/06/11 15:39:31;;;;;;;5.05;3.50;;;;;;;20.48;49.49;97125.63;1800745;79;25657;-85
2021/06/11 15:41:58;;;;;;;14.80;9.98;;;;;;;20.49;49.70;97123.98;1814320;78;25731;-85
2021/06/11 15:44:25;;;;;;;5.20;4.03;;;;;;;20.51;49.25;97120.14;1785381;78;27453;-86
2021/06/11 15:46:54;;;;;;;4.53;3.00;;;;;;;20.54;49.06;97123.67;1817509;78;26251;-84
2021/06/11 15:49:21;;;;;;;3.10;2.67;;;;;;;20.58;48.80;97125.58;1817638;78;25224;-85
2021/06/11 15:51:48;;;;;;;13.65;3.20;;;;;;;20.57;48.62;97127.23;1814627;78;25746;-85
2021/06/11 15:54:15;;;;;;;6.35;2.83;;;;;;;20.49;48.23;97119.87;1748703;79;25728;-85
2021/06/11 15:56:42;;;;;;;2.87;2.40;;;;;;;20.45;48.32;97117.96;1791316;78;27423;-85
2021/06/11 15:59:09;;;;;;;2.95;2.65;;;;;;;20.40;48.49;97117.45;1820008;78;25715;-86
2021/06/11 16:01:36;;;;;;;5.25;2.62;;;;;;;20.36;48.39;97119.11;1791007;78;25339;-86
2021/06/11 16:04:04;;;;;;;11.55;2.70;;;;;;;20.35;49.02;97127.58;1817457;78;25772;-86
2021/06/11 16:06:31;;;;;;;18.00;2.72;;;;;;;20.34;49.18;97123.19;1817199;78;25840;-87
2021/06/11 16:08:58;;;;;;;6.70;2.65;;;;;;;20.25;48.84;97116.11;1817480;78;27383;-85
2021/06/11 16:11:25;;;;;;;6.10;2.55;;;;;;;20.19;48.52;97115.84;1814267;78;26537;-86
2021/06/11 16:13:52;;;;;;;5.03;2.30;;;;;;;20.27;48.49;97118.03;1785533;78;25765;-87
2021/06/11 16:16:18;;;;;;;3.65;2.30;;;;;;;20.37;48.68;97123.49;1817397;78;26056;-86
2021/06/11 16:18:45;;;;;;;3.85;3.37;;;;;;;20.45;48.63;97122.08;1817558;78;25248;-86
2021/06/11 16:21:11;;;;;;;3.55;3.25;;;;;;;20.48;48.65;97114.12;1817508;78;27525;-86
2021/06/11 16:23:38;;;;;;;9.53;4.67;;;;;;;20.50;49.11;97115.21;1817337;78;25783;-86
2021/06/11 16:26:05;;;;;;;9.48;5.65;;;;;;;20.56;49.49;97118.73;1817433;78;25773;-86
2021/06/11 16:28:31;;;;;;;5.78;5.00;;;;;;;20.59;48.97;97122.29;1803908;78;25799;-86
2021/06/11 16:30:58;;;;;;;8.18;5.20;;;;;;;20.54;48.80;97122.30;1749255;79;25772;-86
2021/06/11 16:33:25;;;;;;;5.53;4.50;;;;;;;20.47;48.80;97119.33;1790318;78;28145;-86
2021/06/11 16:35:51;;;;;;;14.28;5.08;;;;;;;20.51;48.58;97118.22;1768941;78;25774;-86
2021/06/11 16:38:18;;;;;;;12.33;4.80;;;;;;;20.52;48.16;97121.79;1798967;79;25673;-86
2021/06/11 16:40:46;;;;;;;4.50;4.03;;;;;;;20.56;48.01;97122.84;1785308;80;25518;-87
2021/06/11 16:43:13;;;;;;;5.10;4.37;;;;;;;20.61;48.21;97120.09;1781043;78;25771;-85
2021/06/11 16:45:42;;;;;;;6.40;4.35;;;;;;;20.61;48.25;97121.45;1784809;79;27516;-86
2021/06/11 16:48:09;;;;;;;7.45;3.80;;;;;;;20.61;48.10;97117.34;1801269;79;25831;-86
2021/06/11 16:50:37;;;;;;;4.12;2.60;;;;;;;20.56;48.24;97117.36;1801430;79;25723;-85
2021/06/11 16:53:08;;;;;;;4.47;3.37;;;;;;;20.53;47.94;97106.98;1801310;79;26148;-84
2021/06/11 16:55:35;;;;;;;43.52;7.50;;;;;;;20.57;47.83;97110.78;1801560;79;25486;-85
2021/06/11 16:58:01;;;;;;;16.87;4.85;;;;;;;20.65;47.75;97110.20;1801297;79;27406;-86
2021/06/11 17:00:28;;;;;;;3.58;3.20;;;;;;;20.71;48.31;97108.51;1801440;79;26347;-85
2021/06/11 17:02:56;;;;;;;6.95;3.22;;;;;;;20.62;47.77;97110.77;1811678;78;25937;-82
2021/06/11 17:05:23;;;;;;;4.67;3.42;;;;;;;20.63;47.58;97113.78;1801881;79;26596;-86
2021/06/11 17:07:52;;;;;;;4.30;2.83;;;;;;;20.61;47.80;97103.63;1806006;79;25910;-85
2021/06/11 17:10:21;;;;;;;5.10;2.92;;;;;;;20.64;47.73;97107.19;1776938;79;27372;-85
2021/06/11 17:12:50;;;;;;;3.58;2.80;;;;;;;20.64;47.74;97108.56;1845968;77;25732;-85
2021/06/11 17:15:18;;;;;;;3.80;3.12;;;;;;;20.65;47.70;97108.84;1846169;77;25688;-84
2021/06/11 17:17:45;;;;;;;4.70;2.87;;;;;;;20.65;47.55;97111.58;1847763;76;25801;-88
2021/06/11 17:20:16;;;;;;;4.05;2.50;;;;;;;20.61;47.61;97104.45;1869395;76;25716;-87
2021/06/11 17:22:47;;;;;;;3.50;2.87;;;;;;;20.58;47.51;97104.19;1853052;76;27884;-86
2021/06/11 17:25:17;;;;;;;3.83;2.75;;;;;;;20.51;47.63;97106.44;1858180;76;25737;-87
2021/06/11 17:27:43;;;;;;;4.15;2.77;;;;;;;20.51;48.08;97104.52;1846038;76;25687;-86
2021/06/11 17:30:27;;;;;;;4.25;2.90;;;;;;;20.46;48.43;97108.09;1856476;76;25667;-86
2021/06/11 17:32:56;;;;;;;3.45;2.87;;;;;;;20.47;48.78;97108.91;1846117;76;26278;-86
2021/06/11 17:35:25;;;;;;;3.00;2.70;;;;;;;20.43;49.27;97111.94;1853429;76;27344;-86
2021/06/11 17:38:01;;;;;;;5.47;3.33;;;;;;;20.43;48.74;97112.76;1854077;76;25576;-86
2021/06/11 17:40:29;;;;;;;5.83;2.98;;;;;;;20.44;48.83;97115.77;1845787;77;25802;-86
2021/06/11 17:42:58;;;;;;;3.87;2.98;;;;;;;20.39;49.20;97123.22;1846195;76;25730;-86
2021/06/11 17:45:30;;;;;;;3.85;2.55;;;;;;;20.37;48.93;97119.38;1852119;76;26638;-85
2021/06/11 17:47:57;;;;;;;4.42;2.92;;;;;;;20.36;48.76;97123.22;1867611;76;32177;-87
2021/06/11 17:50:23;;;;;;;3.22;2.90;;;;;;;20.35;48.69;97122.95;1864237;76;25820;-86
2021/06/11 17:53:10;;;;;;;4.35;3.20;;;;;;;20.35;48.54;97120.20;1846107;77;25723;-85
2021/06/11 17:55:46;;;;;;;3.72;3.00;;;;;;;20.31;48.72;97114.97;1852041;76;25730;-86
2021/06/11 17:58:14;;;;;;;6.45;3.80;;;;;;;20.17;48.93;97115.30;1868855;76;25698;-85
2021/06/11 18:00:43;;;;;;;4.37;3.33;;;;;;;20.06;49.70;97119.17;1863391;76;27533;-85
2021/06/11 18:03:26;;;;;;;8.08;3.30;;;;;;;20.04;50.37;97120.84;1838337;77;26352;-87
2021/06/11 18:06:03;;;;;;;3.77;3.37;;;;;;;19.99;50.91;97124.96;1844733;76;25914;-84
2021/06/11 18:08:34;;;;;;;4.80;3.35;;;;;;;19.94;50.86;97122.22;1845499;76;25741;-85
2021/06/11 18:11:08;;;;;;;4.00;3.25;;;;;;;19.91;50.54;97123.34;1841488;76;25694;-85
2021/06/11 18:13:39;;;;;;;5.42;3.85;;;;;;;19.94;50.45;97125.51;1846133;77;27524;-86
2021/06/11 18:16:19;;;;;;;7.47;4.22;;;;;;;19.91;51.15;97124.72;1845870;76;25746;-87
2021/06/11 18:19:02;;;;;;;10.05;5.17;;;;;;;19.81;51.62;97126.08;1846131;76;25660;-85
2021/06/11 18:21:35;;;;;;;8.33;6.53;;;;;;;19.67;52.18;97125.31;1845963;77;26349;-84
2021/06/11 18:24:22;;;;;;;10.23;7.30;;;;;;;19.54;52.65;97137.38;1846144;77;25742;-87
2021/06/11 18:27:10;;;;;;;14.53;10.20;;;;;;;19.44;53.08;97129.96;1822945;77;27665;-84
2021/06/11 18:29:50;;;;;;;16.55;10.95;;;;;;;19.35;53.51;97126.11;1844910;77;26067;-85
2021/06/11 18:32:25;;;;;;;20.35;12.15;;;;;;;19.27;53.94;97126.66;1846360;76;32223;-88
2021/06/11 18:35:06;;;;;;;19.45;12.28;;;;;;;19.16;54.17;97123.66;1848863;76;26081;-84
2021/06/11 18:37:52;;;;;;;13.48;9.43;;;;;;;19.05;54.40;97133.77;1785857;79;25751;-86
2021/06/11 18:40:22;;;;;;;44.18;9.50;;;;;;;18.94;54.52;97132.94;1846108;77;27350;-87
2021/06/11 18:42:56;;;;;;;23.83;7.83;;;;;;;18.85;54.75;97136.45;1846091;77;25945;-86
2021/06/11 18:45:30;;;;;;;25.97;9.03;;;;;;;18.75;54.90;97136.44;1848526;76;25704;-87
2021/06/11 18:48:38;;;;;;;19.92;8.50;;;;;;;18.63;55.01;97136.67;1783811;79;25720;-87
2021/06/11 18:50:58;;;;;;;23.00;8.20;;;;;;;18.45;55.15;97134.42;1845608;77;25802;-87
2021/06/11 18:53:29;;;;;;;14.95;7.17;;;;;;;18.28;55.59;97140.91;1841226;77;27351;-87
2021/06/11 18:56:00;;;;;;;14.03;7.17;;;;;;;18.19;55.97;97146.60;1846074;77;25647;-84
2021/06/11 18:58:29;;;;;;;18.87;8.35;;;;;;;18.07;56.25;97149.27;1845796;77;25717;-86
2021/06/11 19:00:57;;;;;;;10.72;7.78;;;;;;;17.79;56.28;97147.73;1846065;76;25541;-85
2021/06/11 19:03:25;;;;;;;12.47;8.18;;;;;;;17.70;56.75;97157.51;1846155;76;25986;-85
2021/06/11 19:06:08;;;;;;;11.00;7.87;;;;;;;17.51;56.82;97160.61;1845975;75;28103;-87
2021/06/11 19:08:39;;;;;;;13.20;7.05;;;;;;;17.37;57.11;97162.69;1844815;77;25652;-85
2021/06/11 19:11:29;;;;;;;14.80;9.18;;;;;;;17.35;57.45;97164.31;1845256;77;25678;-86
2021/06/11 19:14:03;;;;;;;14.45;8.73;;;;;;;17.28;57.58;97167.78;1846245;77;25871;-86
2021/06/11 19:16:41;;;;;;;10.40;6.67;;;;;;;17.17;57.76;97168.78;1837218;77;25850;-86
2021/06/11 19:19:18;;;;;;;14.55;9.80;;;;;;;17.21;57.76;97174.83;1834304;77;27617;-87
2021/06/11 19:22:26;;;;;;;20.80;13.48;;;;;;;16.99;57.88;97174.62;1846014;76;25872;-86
2021/06/11 19:25:04;;;;;;;34.08;19.02;;;;;;;16.89;58.29;97178.07;1843472;77;25697;-85
2021/06/11 19:27:50;;;;;;;28.02;16.10;;;;;;;16.88;58.63;97185.42;1859885;76;25764;-84
2021/06/11 19:30:31;;;;;;;35.95;20.10;;;;;;;16.88;58.86;97186.78;1861655;76;25784;-84
2021/06/11 19:33:22;;;;;;;34.47;19.63;;;;;;;16.83;59.02;97186.72;1847249;76;28194;-83
2021/06/11 19:35:55;;;;;;;33.73;18.17;;;;;;;16.69;59.07;97184.11;1857622;76;25714;-91
2021/06/11 19:38:33;;;;;;;30.68;16.42;;;;;;;16.57;59.24;97191.02;1846458;77;25811;-86
2021/06/11 19:41:03;;;;;;;25.65;14.55;;;;;;;16.45;59.46;97194.95;1846144;77;26563;-83
2021/06/11 19:43:40;;;;;;;25.35;13.38;;;;;;;16.34;59.70;97192.65;1848986;76;25661;-85
2021/06/11 19:46:15;;;;;;;27.87;14.63;;;;;;;16.28;59.82;97186.87;1856726;76;27359;-83
2021/06/11 19:48:43;;;;;;;22.17;11.33;;;;;;;16.27;60.17;97189.30;1845354;76;25989;-85
2021/06/11 19:51:17;;;;;;;20.30;12.90;;;;;;;16.23;60.24;97189.51;1845899;77;25724;-85
2021/06/11 19:53:47;;;;;;;20.75;11.18;;;;;;;16.29;60.37;97191.78;1866778;76;25671;-85
2021/06/11 19:56:17;;;;;;;15.13;9.80;;;;;;;16.35;60.49;97197.02;1857633;76;25652;-85
2021/06/11 19:58:47;;;;;;;24.72;12.80;;;;;;;16.37;60.45;97188.60;1846268;76;27588;-84
2021/06/11 20:01:23;;;;;;;21.73;15.72;;;;;;;16.33;60.46;97186.91;1850407;76;25765;-86
2021/06/11 20:03:54;;;;;;;17.90;12.15;;;;;;;16.39;60.59;97200.90;1846012;76;25740;-84
2021/06/11 20:06:25;;;;;;;15.68;9.68;;;;;;;16.39;60.60;97198.71;1845884;76;25708;-84
2021/06/11 20:08:55;;;;;;;16.12;9.40;;;;;;;16.40;60.69;97204.45;1846223;77;25767;-85
2021/06/11 20:11:23;;;;;;;14.07;9.45;;;;;;;16.36;60.72;97203.30;1862108;76;27445;-86
2021/06/11 20:13:51;;;;;;;17.67;8.98;;;;;;;16.31;60.84;97201.31;1845765;76;25680;-85
2021/06/11 20:16:27;;;;;;;18.92;9.28;;;;;;;16.24;60.95;97198.51;1846010;77;25648;-86
2021/06/11 20:18:49;;;;;;;15.65;8.83;;;;;;;16.19;61.16;97200.61;1845425;77;26358;-87
2021/06/11 20:21:16;;;;;;;19.87;9.15;;;;;;;16.16;61.36;97199.23;1846214;76;25568;-86
2021/06/11 20:23:45;;;;;;;14.05;9.53;;;;;;;16.13;61.41;97202.45;1832413;76;28306;-85
2021/06/11 20:26:15;;;;;;;14.87;8.98;;;;;;;16.11;61.46;97205.97;1837246;76;25734;-87
2021/06/11 20:28:43;;;;;;;12.68;8.93;;;;;;;16.06;61.48;97205.88;1846091;77;25808;-86
2021/06/11 20:31:13;;;;;;;12.78;9.18;;;;;;;16.00;61.65;97210.98;1846135;77;25703;-85
2021/06/11 20:33:41;;;;;;;13.72;8.68;;;;;;;15.94;61.77;97205.16;1823071;76;25830;-86
2021/06/11 20:36:11;;;;;;;13.05;8.30;;;;;;;15.89;61.81;97209.19;1846131;77;27515;-85
2021/06/11 20:38:38;;;;;;;11.38;7.80;;;;;;;15.83;61.86;97204.19;1805373;76;25838;-86
2021/06/11 20:41:06;;;;;;;14.33;9.33;;;;;;;15.76;61.97;97198.11;1831541;76;25742;-85
2021/06/11 20:43:36;;;;;;;13.00;8.35;;;;;;;15.71;62.11;97205.36;1840065;76;25672;-87
2021/06/11 20:46:02;;;;;;;12.68;8.55;;;;;;;15.56;62.25;97203.78;1829072;76;25755;-86
2021/06/11 20:48:28;;;;;;;13.60;8.48;;;;;;;15.39;62.47;97197.77;1846005;76;27331;-84
2021/06/11 20:50:55;;;;;;;17.45;10.58;;;;;;;15.23;62.70;97206.72;1845932;76;25729;-85
2021/06/11 20:53:21;;;;;;;17.77;11.75;;;;;;;15.09;63.04;97202.69;1822280;76;25261;-85
2021/06/11 20:55:48;;;;;;;20.17;11.65;;;;;;;14.95;63.32;97209.50;1823357;76;26315;-86
2021/06/11 20:58:15;;;;;;;16.30;9.80;;;;;;;14.88;63.53;97208.80;1846151;76;25770;-84
2021/06/11 21:00:41;;;;;;;14.05;10.23;;;;;;;14.95;63.62;97215.76;1846007;76;27503;-85
2021/06/11 21:03:09;;;;;;;16.05;9.65;;;;;;;14.99;63.62;97218.79;1846102;77;25782;-84
2021/06/11 21:05:36;;;;;;;15.93;9.65;;;;;;;15.00;63.67;97215.01;1861680;76;25283;-85
2021/06/11 21:08:03;;;;;;;12.95;9.38;;;;;;;14.99;63.76;97218.79;1776893;79;25726;-86
2021/06/11 21:10:30;;;;;;;15.18;9.25;;;;;;;14.93;63.78;97211.09;1846049;77;25727;-87
2021/06/11 21:12:57;;;;;;;14.63;9.68;;;;;;;14.89;63.85;97209.92;1846037;76;27336;-86
2021/06/11 21:15:25;;;;;;;15.90;8.38;;;;;;;14.89;63.88;97211.81;1845919;77;25727;-85
2021/06/11 21:17:52;;;;;;;16.00;10.60;;;;;;;14.87;63.92;97209.34;1862348;76;25458;-85
2021/06/11 21:20:19;;;;;;;11.88;8.23;;;;;;;14.83;63.90;97214.16;1846053;77;26416;-86
2021/06/11 21:22:46;;;;;;;12.15;9.55;;;;;;;14.75;64.03;97217.53;1862300;76;25684;-85
2021/06/11 21:25:16;;;;;;;14.80;9.05;;;;;;;14.70;64.11;97213.38;1845798;77;27386;-85
2021/06/11 21:27:43;;;;;;;14.78;8.50;;;;;;;14.68;64.15;97218.23;1846116;77;26621;-85
2021/06/11 21:30:14;;;;;;;13.83;7.97;;;;;;;14.62;64.26;97219.17;1846068;76;25764;-85
2021/06/11 21:32:42;;;;;;;11.38;7.65;;;;;;;14.61;64.30;97218.09;1846134;77;25767;-85
2021/06/11 21:35:11;;;;;;;10.70;7.15;;;;;;;14.54;64.29;97211.42;1862461;76;25782;-85
2021/06/11 21:37:38;;;;;;;10.30;7.83;;;;;;;14.49;64.39;97216.73;1858988;76;27446;-86
2021/06/11 21:40:09;;;;;;;14.15;7.55;;;;;;;14.44;64.51;97219.37;1849078;76;26049;-86
2021/06/11 21:42:35;;;;;;;13.38;7.00;;;;;;;14.41;64.62;97222.55;1857546;76;25919;-86
2021/06/11 21:45:03;;;;;;;14.13;7.40;;;;;;;14.39;64.69;97221.93;1852868;76;25712;-86